Terminal Aerodrome Forecast
Issued by NWS

Home | Current Version | Previous Version | Text Only | Print | Product List | Glossary On
Versions: 1 2 3 4 5 6 7 8 9 10 11 12
000
FTUS44 KJAN 251723
TAFGTR
TAF
KGTR 251723Z 2518/2618 16012G22KT P6SM VCTS BKN040CB
     FM260300 17008KT P6SM VCSH BKN090 BKN250
     FM260700 18006KT 6SM BR BKN008 BKN250
     FM261100 18004KT 4SM BR BKN003 BKN250
     FM261400 19006KT P6SM FEW008 SCT250=

USA.gov is the U.S. government's official web portal to all federal, state and local government web resources and services.